WetterOnline ( https://www.wetteronline.de )

Wetter aktuell Idstein

Aktuelles Wetter: Kleiner Feldberg (802m)

6-stündlich | Neueste Meldungen
Ortszeit Temperatur Wetter
Do, 28.10. 8:00 7.2° C wolkenlos
Do, 28.10. 2:00 6.5° C Nebel
Mi, 27.10. 20:00 7.3° C wolkig
Mi, 27.10. 14:00 9.4° C bewölkt
Mi, 27.10. 8:00 7.4° C Sprühregen
Mi, 27.10. 2:00 6.0° C Nebel
Di, 26.10. 20:00 6.9° C bewölkt
Di, 26.10. 14:00 8.7° C wolkig
Ortszeit Temperatur Wetter
Do, 28.10. 11:00 6.3° C bewölkt
Do, 28.10. 10:50 6.3° C bewölkt
Do, 28.10. 10:40 6.0° C wolkig
Do, 28.10. 10:30 7.9° C leicht bewölkt
Do, 28.10. 10:20 7.9° C leicht bewölkt
Do, 28.10. 10:10 8.4° C fast wolkenlos
Do, 28.10. 10:00 8.5° C leicht bewölkt
Do, 28.10. 9:30 8.4° C wolkenlos
Do, 28.10. 9:00 7.4° C wolkenlos
Do, 28.10. 8:30 7.2° C wolkenlos
Do, 28.10. 8:00 7.2° C wolkenlos
Ortszeit Relative Feuchte Sichtweite
Do, 28.10. 8:00 76% 45 km
Do, 28.10. 2:00 100% 0.2 km
Mi, 27.10. 20:00 98% 15 km
Mi, 27.10. 14:00 89% 40 km
Mi, 27.10. 8:00 100% 0.3 km
Mi, 27.10. 2:00 100% 0.2 km
Di, 26.10. 20:00 90% 50 km
Di, 26.10. 14:00 88% 40 km
Ortszeit Relative Feuchte Sichtweite
Do, 28.10. 11:00 95% 1.1 km
Do, 28.10. 10:50 95% -
Do, 28.10. 10:40 95% -
Do, 28.10. 10:30 81% 30 km
Do, 28.10. 10:20 81% -
Do, 28.10. 10:10 76% -
Do, 28.10. 10:00 75% 40 km
Do, 28.10. 9:30 72% 50 km
Do, 28.10. 9:00 78% 40 km
Do, 28.10. 8:30 77% 50 km
Do, 28.10. 8:00 76% 45 km
Ortszeit Niederschlagsmenge Niederschlagsart
Do, 28.10. 8:00 0.1 l/m2 in 12 Std. -
Do, 28.10. 2:00 0.0 l/m2 in 6 Std. -
Mi, 27.10. 20:00 0.1 l/m2 in 12 Std. -
Mi, 27.10. 14:00 0.1 l/m2 in 6 Std. Sprühregen
Mi, 27.10. 8:00 0.1 l/m2 in 12 Std. Regen
Mi, 27.10. 2:00 0.0 l/m2 in 6 Std. -
Di, 26.10. 20:00 0.0 l/m2 in 3 Std. -
Di, 26.10. 14:00 0.0 l/m2 in 3 Std. Regen
Ortszeit Niederschlagsmenge Niederschlagsart
Do, 28.10. 11:00 0.0 l/m2 in 1 Std. -
Do, 28.10. 10:50 keine Meldung -
Do, 28.10. 10:40 keine Meldung -
Do, 28.10. 10:30 0.0 l/m2 in 1 Std. -
Do, 28.10. 10:20 keine Meldung -
Do, 28.10. 10:10 keine Meldung -
Do, 28.10. 10:00 0.0 l/m2 in 1 Std. -
Do, 28.10. 9:30 0.0 l/m2 in 1 Std. -
Do, 28.10. 9:00 0.0 l/m2 in 1 Std. -
Do, 28.10. 8:30 0.0 l/m2 in 1 Std. -
Do, 28.10. 8:00 0.0 l/m2 in 1 Std. -
Ortszeit Stärke Spitze Richtung
km/h Bft. km/h Grad Sektor
Do, 28.10. 8:00 24 4 35 140° SO
Do, 28.10. 2:00 19 3 28 150° SO
Mi, 27.10. 20:00 11 2 20 170° S
Mi, 27.10. 14:00 11 2 22 230° SW
Mi, 27.10. 8:00 11 2 25 300° NW
Mi, 27.10. 2:00 14 3 32 290° W
Di, 26.10. 20:00 11 2 29 270° W
Di, 26.10. 14:00 11 2 29 240° SW
Ortszeit Stärke Spitze Richtung
km/h Bft. km/h Grad Sektor
Do, 28.10. 11:00 17 3 31 150° SO
Do, 28.10. 10:50 17 3 - 150° SO
Do, 28.10. 10:40 19 3 - 150° SO
Do, 28.10. 10:30 22 4 32 140° SO
Do, 28.10. 10:20 22 4 - 140° SO
Do, 28.10. 10:10 22 4 - 140° SO
Do, 28.10. 10:00 22 4 32 130° SO
Do, 28.10. 9:30 22 4 32 140° SO
Do, 28.10. 9:00 22 4 31 140° SO
Do, 28.10. 8:30 22 4 32 140° SO
Do, 28.10. 8:00 24 4 35 140° SO
Ortszeit Untergrenze Bedeckung Gattung
total tief tief mittel hoch
Do, 28.10. 8:00 - 0/8 0/8 - - -
Do, 28.10. 2:00 <30 m 6/8 0/8 - - -
Mi, 27.10. 20:00 9000 m 8/8 0/8 - - -
Mi, 27.10. 14:00 210 m 7/8 7/8 - - -
Mi, 27.10. 8:00 <30 m 8/8 0/8 - - -
Mi, 27.10. 2:00 <30 m 8/8 0/8 - - -
Di, 26.10. 20:00 510 m 8/8 6/8 - - -
Di, 26.10. 14:00 60 m 6/8 6/8 - - -
Ortszeit Bedeckungsgrad in Achtel und Wolkenuntergrenze
Do, 28.10. 11:00 7(<30m) 7(10500m)
Do, 28.10. 10:50 7(<30m) 7(10500m)
Do, 28.10. 10:40 5(30m) 7(10500m)
Do, 28.10. 10:30 3(10500m) 5(10500m)
Do, 28.10. 10:20 3(10500m)
Do, 28.10. 10:10 2(10500m)
Do, 28.10. 10:00 3(10500m)
Do, 28.10. 9:30 keine Wolken
Do, 28.10. 9:00 1(10500m)
Do, 28.10. 8:30 keine Wolken
Do, 28.10. 8:00 keine Wolken
Ortszeit Stationsdruck (hPa) Tendenz (hPa in 3 Std.)
Do, 28.10. 8:00 924 - 0,9
Do, 28.10. 2:00 926 - 0,9
Mi, 27.10. 20:00 928 - 0,4
Mi, 27.10. 14:00 929 - 0,4
Mi, 27.10. 8:00 929 + 0,8
Mi, 27.10. 2:00 928 + 0,1
Di, 26.10. 20:00 928 + 1,2
Di, 26.10. 14:00 926 + 0,2
Ortszeit Stationsdruck (hPa) Tendenz (hPa in 3 Std.)
Do, 28.10. 11:00 924 - 0,6
Do, 28.10. 10:50 924 keine Meldung
Do, 28.10. 10:40 924 keine Meldung
Do, 28.10. 10:30 924 - 0,8
Do, 28.10. 10:20 924 keine Meldung
Do, 28.10. 10:10 924 keine Meldung
Do, 28.10. 10:00 924 - 0,7
Do, 28.10. 9:30 924 - 0,7
Do, 28.10. 9:00 924 - 0,8
Do, 28.10. 8:30 924 - 0,8
Do, 28.10. 8:00 924 - 0,9
Ortszeit Schneehöhe (cm)
Do, 28.10. 8:00 0
Do, 28.10. 2:00 0
Mi, 27.10. 20:00 0
Mi, 27.10. 14:00 0
Mi, 27.10. 8:00 0
Mi, 27.10. 2:00 0
Di, 26.10. 20:00 0
Di, 26.10. 14:00 0
Ortszeit Schneehöhe (cm)
Do, 28.10. 11:00 0
Do, 28.10. 10:50 0
Do, 28.10. 10:40 0
Do, 28.10. 10:30 0
Do, 28.10. 10:20 0
Do, 28.10. 10:10 0
Do, 28.10. 10:00 0
Do, 28.10. 9:30 0
Do, 28.10. 9:00 0
Do, 28.10. 8:30 0
Do, 28.10. 8:00 0
Link zu dieser Seite / Seite empfehlen

Das Wetter in ...